Flagstaff, AZ

11:29 AM MST on January 25, 2015 (GMT -0700)
Doney Park | Change Station
CLOSE
Current Station
Personal Weather Station
Location: Flagstaff, AZ
Elevation: 6555 ft
Nearby Weather Stations

Elev 6555 ft 35.28 °N, 111.50 °W | Updated 1 second ago

Clear
Clear
51.4 °F
Feels Like 51.4 °F
N
8.0
Wind Variable Wind from NE
Gusts 13.0 mph

Today
High -- | Low -- °F
--% Chance of Precip.
Yesterday
High -- | Low -- °F
Precip. -- in
7:30 AM 5:47 PM
Waxing Crescent, 34% visible
Pressure 30.22 in
Visibility 10.0 miles
Clouds Clear
Dew Point 27 °F
Humidity 38%
Rainfall 0.00 in
Snow Depth Not available.
UV 4.0 out of 12
Pollen 3.60 out of 12
Air Quality Not available.
Flu Activity Not available.
METAR KFLG 251757Z 04013G23KT 10SM CLR 09/M06 A3036 RMK AO2 SLP233 T00941061 10094 20028 53013

More Conditions Fewer Conditions

Pressure 30.22 in
Visibility 10.0 miles
Clouds Clear
Dew Point 27 °F
Humidity 38%
Rainfall 0.00 in
Snow Depth Not available.
UV 4.0 out of 12
Pollen 3.60 out of 12
Air Quality Not available.
Flu Activity Not available.
METAR KFLG 251757Z 04013G23KT 10SM CLR 09/M06 A3036 RMK AO2 SLP233 T00941061 10094 20028 53013

More Conditions Fewer Conditions

10-Day Weather Forecast

Almanac

Astronomy

Jan. 25, 2015 Rise Set
Actual Time
Civil Twilight
Nautical Twilight
Astronomical Twilight
Moon
Length of Visible Light
Length of Day
Tomorrow will be .
, % of the Moon is Illuminated

Today's Extremes

State Highs State Lows

Community

WunderPhotos

Upload Photos

1,790,012 photos uploaded!

WunderBlogs® & News

Nearby

Air Quality

  Air Quality AQ Index Pollutant
Not available.

Snow Depth

Station Depth Elevation

Earthquake Activity

City Distance Mag. Time & Date
Minimum magnitude displayed is 2.5.

Coastal Water Temperatures

Place Temperature

Nearby Weather Stations